createdAt,value
2018-07-24T00:00:56.116Z,5.53
2018-07-24T00:03:25.338Z,4.97
2018-07-24T00:05:54.575Z,5.10
2018-07-24T00:08:23.555Z,5.33
2018-07-24T00:10:52.607Z,5.53
2018-07-24T00:13:21.622Z,6.00
2018-07-24T00:15:50.872Z,5.10
2018-07-24T00:18:20.118Z,5.80
2018-07-24T00:20:49.341Z,5.13
2018-07-24T00:23:18.579Z,4.67
2018-07-24T00:25:47.791Z,4.83
2018-07-24T00:28:16.998Z,5.70
2018-07-24T00:30:46.020Z,5.03
2018-07-24T00:33:15.230Z,5.33
2018-07-24T00:35:44.287Z,5.10
2018-07-24T00:38:13.515Z,5.47
2018-07-24T00:40:42.518Z,5.13
2018-07-24T00:43:12.092Z,5.20
2018-07-24T00:45:41.382Z,5.13
2018-07-24T00:48:10.426Z,5.20
2018-07-24T00:50:39.638Z,5.57
2018-07-24T00:53:08.867Z,5.30
2018-07-24T00:55:38.365Z,4.87
2018-07-24T00:58:07.515Z,5.23
2018-07-24T01:00:36.735Z,5.93
2018-07-24T01:03:05.748Z,6.00
2018-07-24T01:05:35.023Z,5.27
2018-07-24T01:08:04.223Z,5.30
2018-07-24T01:10:33.451Z,5.47
2018-07-24T01:13:02.849Z,5.60
2018-07-24T01:15:32.384Z,5.50
2018-07-24T01:18:01.500Z,5.17
2018-07-24T01:20:31.952Z,5.73
2018-07-24T01:23:01.866Z,5.37
2018-07-24T01:25:31.439Z,5.70
2018-07-24T01:28:00.637Z,5.97
2018-07-24T01:30:29.820Z,5.87
2018-07-24T01:32:58.816Z,5.90
2018-07-24T01:35:27.867Z,5.57
2018-07-24T01:37:57.087Z,5.33
2018-07-24T01:40:26.316Z,5.90
2018-07-24T01:42:55.313Z,4.93
2018-07-24T01:45:24.064Z,5.73
2018-07-24T01:47:53.092Z,5.17
2018-07-24T01:50:22.441Z,5.80
2018-07-24T01:52:51.662Z,5.30
2018-07-24T01:55:20.905Z,6.00
2018-07-24T01:57:50.150Z,6.20
2018-07-24T02:00:19.386Z,6.03
2018-07-24T02:02:48.571Z,6.13
2018-07-24T02:05:17.571Z,6.00
2018-07-24T02:07:46.595Z,5.70
2018-07-24T02:10:15.860Z,6.43
2018-07-24T02:12:45.088Z,6.03
2018-07-24T02:15:14.315Z,5.97
2018-07-24T02:17:43.560Z,5.30
2018-07-24T02:20:12.763Z,5.47
2018-07-24T02:22:41.994Z,5.70
2018-07-24T02:25:10.990Z,6.80
2018-07-24T02:27:40.268Z,5.90
2018-07-24T02:30:09.480Z,6.10
2018-07-24T02:32:38.740Z,6.83
2018-07-24T02:35:08.053Z,5.77
2018-07-24T02:37:37.346Z,6.37
2018-07-24T02:40:06.584Z,7.00
2018-07-24T02:42:35.556Z,6.57
2018-07-24T02:45:04.952Z,6.70
2018-07-24T02:47:34.244Z,6.33
2018-07-24T02:50:03.316Z,6.50
2018-07-24T02:52:32.283Z,6.83
2018-07-24T02:55:01.311Z,6.27
2018-07-24T02:57:30.639Z,6.20
2018-07-24T02:59:59.799Z,6.70
2018-07-24T03:02:28.791Z,6.40
2018-07-24T03:04:57.891Z,6.83
2018-07-24T03:07:27.047Z,6.60
2018-07-24T03:09:56.315Z,6.53
2018-07-24T03:12:25.311Z,6.83
2018-07-24T03:14:54.332Z,7.03
2018-07-24T03:17:23.384Z,7.77
2018-07-24T03:19:52.608Z,7.57
2018-07-24T03:22:21.836Z,7.50
2018-07-24T03:24:51.076Z,7.40
2018-07-24T03:27:20.048Z,7.60
2018-07-24T03:29:49.316Z,7.40
2018-07-24T03:32:18.539Z,7.23
2018-07-24T03:34:47.767Z,8.13
2018-07-24T03:37:17.050Z,7.47
2018-07-24T03:39:46.208Z,7.43
2018-07-24T03:42:15.444Z,7.40
2018-07-24T03:44:44.447Z,7.80
2018-07-24T03:47:13.737Z,7.43
2018-07-24T03:49:42.919Z,8.03
2018-07-24T03:52:11.955Z,7.47
2018-07-24T03:54:41.179Z,7.63
2018-07-24T03:57:10.408Z,7.73
2018-07-24T03:59:39.632Z,7.63
2018-07-24T04:02:08.859Z,8.70
2018-07-24T04:04:38.111Z,7.90
2018-07-24T04:07:07.131Z,8.50
2018-07-24T04:09:36.389Z,7.40
2018-07-24T04:12:05.618Z,8.50
2018-07-24T04:14:34.568Z,8.97
2018-07-24T04:17:03.604Z,9.87
2018-07-24T04:19:32.866Z,9.20
2018-07-24T04:22:02.076Z,8.33
2018-07-24T04:24:31.111Z,8.50
2018-07-24T04:27:00.337Z,8.63
2018-07-24T04:29:29.580Z,8.33
2018-07-24T04:31:58.583Z,8.60
2018-07-24T04:34:27.813Z,9.77
2018-07-24T04:36:56.915Z,8.87
2018-07-24T04:39:26.080Z,8.97
2018-07-24T04:41:55.665Z,9.03
2018-07-24T04:44:24.920Z,10.70
2018-07-24T04:46:54.156Z,9.47
2018-07-24T04:49:23.150Z,9.10
2018-07-24T04:51:52.213Z,8.70
2018-07-24T04:54:21.347Z,8.57
2018-07-24T04:56:50.472Z,8.67
2018-07-24T04:59:19.696Z,8.90
2018-07-24T05:01:48.934Z,8.20
2018-07-24T05:04:18.132Z,8.50
2018-07-24T05:06:47.355Z,8.83
2018-07-24T05:09:16.583Z,8.77
2018-07-24T05:11:45.589Z,8.33
2018-07-24T05:14:15.312Z,7.63
2018-07-24T05:16:44.282Z,7.47
2018-07-24T05:19:13.487Z,8.03
2018-07-24T05:21:42.711Z,8.30
2018-07-24T05:24:11.954Z,7.40
2018-07-24T05:26:41.176Z,7.67
2018-07-24T05:29:10.168Z,8.27
2018-07-24T05:31:39.596Z,9.57
2018-07-24T05:34:08.657Z,7.87
2018-07-24T05:36:37.891Z,8.30
2018-07-24T05:39:08.071Z,8.47
2018-07-24T05:41:37.124Z,8.53
2018-07-24T05:44:06.335Z,8.57
2018-07-24T05:46:35.680Z,8.27
2018-07-24T05:49:04.986Z,8.40
2018-07-24T05:51:34.225Z,9.40
2018-07-24T05:54:03.271Z,8.93
2018-07-24T05:56:32.245Z,9.53
2018-07-24T05:59:01.515Z,9.67
2018-07-24T06:01:30.718Z,8.20
2018-07-24T06:03:59.949Z,8.83
2018-07-24T06:06:28.955Z,9.37
2018-07-24T06:08:58.232Z,8.90
2018-07-24T06:11:27.427Z,9.53
2018-07-24T06:13:56.671Z,8.70
2018-07-24T06:16:25.658Z,8.87
2018-07-24T06:18:55.103Z,9.20
2018-07-24T06:21:24.341Z,8.47
2018-07-24T06:23:53.564Z,8.67
2018-07-24T06:26:22.565Z,9.60
2018-07-24T06:28:51.594Z,9.17
2018-07-24T06:31:21.060Z,9.30
2018-07-24T06:33:50.323Z,9.63
2018-07-24T06:36:19.530Z,9.80
2018-07-24T06:38:48.902Z,8.73
2018-07-24T06:41:18.147Z,9.67
2018-07-24T06:43:47.371Z,9.33
2018-07-24T06:46:16.608Z,8.67
2018-07-24T06:48:45.588Z,9.60
2018-07-24T06:51:15.016Z,9.10
2018-07-24T06:53:44.262Z,8.80
2018-07-24T06:56:13.290Z,8.40
2018-07-24T06:58:42.550Z,9.10
2018-07-24T07:01:11.764Z,9.43
2018-07-24T07:03:40.992Z,9.70
2018-07-24T07:06:09.987Z,8.37
2018-07-24T07:08:39.231Z,9.03
2018-07-24T07:11:08.451Z,9.43
2018-07-24T07:13:37.859Z,9.53
2018-07-24T07:16:06.747Z,10.10
2018-07-24T07:18:35.936Z,8.90
2018-07-24T07:21:05.181Z,8.83
2018-07-24T07:23:35.152Z,9.37
2018-07-24T07:26:04.421Z,8.23
2018-07-24T07:28:33.428Z,9.20
2018-07-24T07:31:02.656Z,8.07
2018-07-24T07:33:31.896Z,8.37
2018-07-24T07:36:01.114Z,8.00
2018-07-24T07:38:30.359Z,8.10
2018-07-24T07:40:59.563Z,7.90
2018-07-24T07:43:28.475Z,8.67
2018-07-24T07:45:56.992Z,7.90
2018-07-24T07:48:26.283Z,8.57
2018-07-24T07:50:55.458Z,7.83
2018-07-24T07:53:24.208Z,7.73
2018-07-24T07:55:52.772Z,7.77
2018-07-24T07:58:21.791Z,8.63
2018-07-24T08:00:50.819Z,7.33
2018-07-24T08:03:20.035Z,7.53
2018-07-24T08:05:49.264Z,7.33
2018-07-24T08:08:18.517Z,7.80
2018-07-24T08:10:47.890Z,7.90
2018-07-24T08:13:17.148Z,6.13
2018-07-24T08:15:46.173Z,7.67
2018-07-24T08:18:15.391Z,7.37
2018-07-24T08:20:44.617Z,7.60
2018-07-24T08:23:13.875Z,7.57
2018-07-24T08:25:42.847Z,6.50
2018-07-24T08:28:12.232Z,7.30
2018-07-24T08:30:41.537Z,7.33
2018-07-24T08:33:10.306Z,7.87
2018-07-24T08:35:39.579Z,7.10
2018-07-24T08:38:08.132Z,7.03
2018-07-24T08:40:37.007Z,6.80
2018-07-24T08:43:05.540Z,6.87
2018-07-24T08:45:34.699Z,6.90
2018-07-24T08:48:03.939Z,7.10
2018-07-24T08:50:33.175Z,7.17
2018-07-24T08:53:02.519Z,6.87
2018-07-24T08:55:31.667Z,6.90
2018-07-24T08:58:00.459Z,7.40
2018-07-24T09:00:29.744Z,6.90
2018-07-24T09:02:58.924Z,6.70
2018-07-24T09:05:28.139Z,6.40
2018-07-24T09:07:57.355Z,6.63
2018-07-24T09:10:26.373Z,6.23
2018-07-24T09:12:55.615Z,6.43
2018-07-24T09:15:24.278Z,6.90
2018-07-24T09:17:53.472Z,6.87
2018-07-24T09:20:22.532Z,6.13
2018-07-24T09:22:51.750Z,6.73
2018-07-24T09:25:20.751Z,6.17
2018-07-24T09:27:49.997Z,6.57
2018-07-24T09:30:19.186Z,6.77
2018-07-24T09:32:48.484Z,6.80
2018-07-24T09:35:17.702Z,6.70
2018-07-24T09:37:46.883Z,7.03
2018-07-24T09:40:15.907Z,5.73
2018-07-24T09:42:45.136Z,7.10
2018-07-24T09:45:14.400Z,6.60
2018-07-24T09:47:43.599Z,6.80
2018-07-24T09:50:12.867Z,7.33
2018-07-24T09:52:42.057Z,6.93
2018-07-24T09:55:11.042Z,6.03
2018-07-24T09:57:40.475Z,6.90
2018-07-24T10:00:09.897Z,7.00
2018-07-24T10:02:39.339Z,6.70
2018-07-24T10:05:08.827Z,6.77
2018-07-24T10:07:38.100Z,6.70
2018-07-24T10:10:07.198Z,6.80
2018-07-24T10:12:36.258Z,6.67
2018-07-24T10:15:05.260Z,6.77
2018-07-24T10:17:34.308Z,6.63
2018-07-24T10:20:03.568Z,6.70
2018-07-24T10:22:32.760Z,7.10
2018-07-24T10:25:02.156Z,6.73
2018-07-24T10:27:31.421Z,6.70
2018-07-24T10:30:00.411Z,6.67
2018-07-24T10:32:29.473Z,6.73
2018-07-24T10:34:58.723Z,7.43
2018-07-24T10:37:28.140Z,7.10
2018-07-24T10:39:57.335Z,6.87
2018-07-24T10:42:26.392Z,6.93
2018-07-24T10:44:55.579Z,7.13
2018-07-24T10:47:24.819Z,6.67
2018-07-24T10:49:54.043Z,7.33
2018-07-24T10:52:23.246Z,6.67
2018-07-24T10:54:52.511Z,7.30
2018-07-24T10:57:21.540Z,7.50
2018-07-24T10:59:50.755Z,7.07
2018-07-24T11:02:19.765Z,7.27
2018-07-24T11:04:49.067Z,7.10
2018-07-24T11:07:17.596Z,6.50
2018-07-24T11:09:47.185Z,7.07
2018-07-24T11:12:16.491Z,6.73
2018-07-24T11:14:45.727Z,6.93
2018-07-24T11:17:14.943Z,6.47
2018-07-24T11:19:43.476Z,6.23
2018-07-24T11:22:12.015Z,6.47
2018-07-24T11:24:40.596Z,6.43
2018-07-24T11:27:09.108Z,6.23
2018-07-24T11:29:37.632Z,6.07
2018-07-24T11:32:06.174Z,5.80
2018-07-24T11:34:34.820Z,5.83
2018-07-24T11:37:03.431Z,6.33
2018-07-24T11:39:31.935Z,5.90
2018-07-24T11:42:00.549Z,7.90
2018-07-24T11:44:29.080Z,6.27
2018-07-24T11:46:57.783Z,6.30
2018-07-24T11:49:26.299Z,5.77
2018-07-24T11:51:54.865Z,6.33
2018-07-24T11:54:23.402Z,6.23
2018-07-24T11:56:51.972Z,5.70
2018-07-24T11:59:20.513Z,5.83
2018-07-24T12:01:49.059Z,6.17
2018-07-24T12:04:17.581Z,5.90
2018-07-24T12:06:46.248Z,6.47
2018-07-24T12:09:14.763Z,6.20
2018-07-24T12:11:43.322Z,5.93
2018-07-24T12:14:11.904Z,5.50
2018-07-24T12:16:40.418Z,6.47
2018-07-24T12:19:08.937Z,6.27
2018-07-24T12:21:37.461Z,5.70
2018-07-24T12:24:06.021Z,5.60
2018-07-24T12:26:34.560Z,5.77
2018-07-24T12:29:03.104Z,5.60
2018-07-24T12:31:31.611Z,5.90
2018-07-24T12:34:00.147Z,6.53
2018-07-24T12:36:28.634Z,6.03
2018-07-24T12:38:57.156Z,6.07
2018-07-24T12:41:25.732Z,5.67
2018-07-24T12:43:55.046Z,6.07
2018-07-24T12:46:24.320Z,6.03
2018-07-24T12:48:53.170Z,5.63
2018-07-24T12:51:21.688Z,5.77
2018-07-24T12:53:50.215Z,6.03
2018-07-24T12:56:18.724Z,6.47
2018-07-24T12:58:47.243Z,6.07
2018-07-24T13:01:15.849Z,6.07
2018-07-24T13:03:44.389Z,7.07
2018-07-24T13:06:13.018Z,6.07
2018-07-24T13:08:41.524Z,5.77
2018-07-24T13:11:10.061Z,6.03
2018-07-24T13:13:38.584Z,6.60
2018-07-24T13:16:07.124Z,5.67
2018-07-24T13:18:35.676Z,6.10
2018-07-24T13:21:04.268Z,5.63
2018-07-24T13:23:32.799Z,5.40
2018-07-24T13:26:01.318Z,5.70
2018-07-24T13:28:29.827Z,5.57
2018-07-24T13:30:59.125Z,5.57
2018-07-24T13:33:27.667Z,4.97
2018-07-24T13:35:56.199Z,5.20
2018-07-24T13:38:24.748Z,5.77
2018-07-24T13:40:53.264Z,5.60
2018-07-24T13:43:22.031Z,5.90
2018-07-24T13:45:50.583Z,6.33
2018-07-24T13:48:19.102Z,5.97
2018-07-24T13:50:47.876Z,5.23
2018-07-24T13:53:16.414Z,5.70
2018-07-24T13:55:44.935Z,5.90
2018-07-24T13:58:13.468Z,6.00
2018-07-24T14:00:41.967Z,6.27
2018-07-24T14:03:11.218Z,6.97
2018-07-24T14:05:40.426Z,6.27
2018-07-24T14:08:09.444Z,5.60
2018-07-24T14:10:37.957Z,6.40
2018-07-24T14:13:06.887Z,5.57
2018-07-24T14:15:36.147Z,5.90
2018-07-24T14:18:05.392Z,5.60
2018-07-24T14:20:34.386Z,5.70
2018-07-24T14:23:03.980Z,5.93
2018-07-24T14:25:33.266Z,6.03
2018-07-24T14:28:02.646Z,6.13
2018-07-24T14:30:31.192Z,5.70
2018-07-24T14:33:00.537Z,6.10
2018-07-24T14:35:29.760Z,5.70
2018-07-24T14:37:59.000Z,6.33
2018-07-24T14:40:28.263Z,7.00
2018-07-24T14:42:57.739Z,6.87
2018-07-24T14:45:27.065Z,6.53
2018-07-24T14:47:56.255Z,6.47
2018-07-24T14:50:25.504Z,5.60
2018-07-24T14:52:54.948Z,6.67
2018-07-24T14:55:23.999Z,6.70
2018-07-24T14:57:53.183Z,5.90
2018-07-24T15:00:22.427Z,6.03
2018-07-24T15:02:51.636Z,6.20
2018-07-24T15:05:20.640Z,5.30
2018-07-24T15:07:49.679Z,5.43
2018-07-24T15:10:18.720Z,6.50
2018-07-24T15:12:47.951Z,6.47
2018-07-24T15:15:17.183Z,6.13
2018-07-24T15:17:46.379Z,6.20
2018-07-24T15:20:14.905Z,6.00
2018-07-24T15:22:43.419Z,5.80
2018-07-24T15:25:12.476Z,6.17
2018-07-24T15:27:41.754Z,6.80
2018-07-24T15:30:10.960Z,5.97
2018-07-24T15:32:40.206Z,5.67
2018-07-24T15:35:09.303Z,6.20
2018-07-24T15:37:38.436Z,6.17
2018-07-24T15:40:07.836Z,6.17
2018-07-24T15:42:37.089Z,5.87
2018-07-24T15:45:06.132Z,6.20
2018-07-24T15:47:35.357Z,5.83
2018-07-24T15:50:04.349Z,6.07
2018-07-24T15:52:33.621Z,6.03
2018-07-24T15:55:02.991Z,6.17
2018-07-24T15:57:32.244Z,6.70
2018-07-24T16:00:01.447Z,6.57
2018-07-24T16:02:30.739Z,6.67
2018-07-24T16:04:59.928Z,6.07
2018-07-24T16:07:29.127Z,6.43
2018-07-24T16:09:58.377Z,6.67
2018-07-24T16:12:27.608Z,6.13
2018-07-24T16:14:56.599Z,6.43
2018-07-24T16:17:25.649Z,6.10
2018-07-24T16:19:54.886Z,6.40
2018-07-24T16:22:24.128Z,6.17
2018-07-24T16:24:53.336Z,6.10
2018-07-24T16:27:22.561Z,6.70
2018-07-24T16:29:51.815Z,6.53
2018-07-24T16:32:21.056Z,6.87
2018-07-24T16:34:50.033Z,6.90
2018-07-24T16:37:19.048Z,6.30
2018-07-24T16:39:48.311Z,6.47
2018-07-24T16:42:17.515Z,5.97
2018-07-24T16:44:46.756Z,5.93
2018-07-24T16:47:15.980Z,6.77
2018-07-24T16:49:45.227Z,6.47
2018-07-24T16:52:14.443Z,6.27
2018-07-24T16:54:43.652Z,6.17
2018-07-24T16:57:12.287Z,6.60
2018-07-24T16:59:41.291Z,6.20
2018-07-24T17:02:10.630Z,6.33
2018-07-24T17:04:40.125Z,5.90
2018-07-24T17:07:09.392Z,6.33
2018-07-24T17:09:38.631Z,6.40
2018-07-24T17:12:07.808Z,6.90
2018-07-24T17:14:37.074Z,6.37
2018-07-24T17:17:06.101Z,5.83
2018-07-24T17:19:35.114Z,6.03
2018-07-24T17:22:04.180Z,6.00
2018-07-24T17:24:33.161Z,6.47
2018-07-24T17:27:01.682Z,6.70
2018-07-24T17:29:30.622Z,6.50
2018-07-24T17:31:59.124Z,6.20
2018-07-24T17:34:28.318Z,6.77
2018-07-24T17:36:57.363Z,6.30
2018-07-24T17:39:26.358Z,5.93
2018-07-24T17:41:55.411Z,6.20
2018-07-24T17:44:24.771Z,6.47
2018-07-24T17:46:54.056Z,6.40
2018-07-24T17:49:23.077Z,6.30
2018-07-24T17:51:52.078Z,6.10
2018-07-24T17:54:21.340Z,5.80
2018-07-24T17:56:50.602Z,6.33
2018-07-24T17:59:20.016Z,5.73
2018-07-24T18:01:49.207Z,7.40
2018-07-24T18:04:18.452Z,7.10
2018-07-24T18:06:47.689Z,6.70
2018-07-24T18:09:16.943Z,6.47
2018-07-24T18:11:45.890Z,6.10
2018-07-24T18:14:14.973Z,6.73
2018-07-24T18:16:44.172Z,6.37
2018-07-24T18:19:13.404Z,5.67
2018-07-24T18:21:42.641Z,6.70
2018-07-24T18:24:11.659Z,6.23
2018-07-24T18:26:40.909Z,5.60
2018-07-24T18:29:10.082Z,6.33
2018-07-24T18:31:39.327Z,6.37
2018-07-24T18:34:08.567Z,6.83
2018-07-24T18:36:37.799Z,6.47
2018-07-24T18:39:08.001Z,6.70
2018-07-24T18:41:37.594Z,6.07
2018-07-24T18:44:06.836Z,6.00
2018-07-24T18:46:36.069Z,6.37
2018-07-24T18:49:05.305Z,5.97
2018-07-24T18:51:34.284Z,6.20
2018-07-24T18:54:03.323Z,6.53
2018-07-24T18:56:32.575Z,6.60
2018-07-24T18:59:01.583Z,6.93
2018-07-24T19:01:30.856Z,6.90
2018-07-24T19:04:00.072Z,6.83
2018-07-24T19:06:29.070Z,6.70
2018-07-24T19:08:58.323Z,6.40
2018-07-24T19:11:27.752Z,6.73
2018-07-24T19:13:56.789Z,6.33
2018-07-24T19:16:25.781Z,6.33
2018-07-24T19:18:55.431Z,6.53
2018-07-24T19:21:24.644Z,9.57
2018-07-24T19:23:53.890Z,7.87
2018-07-24T19:26:22.897Z,6.90
2018-07-24T19:28:52.144Z,7.20
2018-07-24T19:31:21.385Z,7.53
2018-07-24T19:33:50.568Z,7.27
2018-07-24T19:36:19.564Z,7.73
2018-07-24T19:38:48.840Z,7.83
2018-07-24T19:41:18.078Z,8.03
2018-07-24T19:43:47.390Z,7.67
2018-07-24T19:46:16.478Z,8.00
2018-07-24T19:48:45.504Z,7.10
2018-07-24T19:51:14.563Z,8.07
2018-07-24T19:53:43.796Z,8.30
2018-07-24T19:56:13.040Z,7.17
2018-07-24T19:58:42.242Z,8.57
2018-07-24T20:01:11.640Z,7.70
2018-07-24T20:03:40.956Z,7.97
2018-07-24T20:06:10.132Z,7.73
2018-07-24T20:08:39.346Z,8.10
2018-07-24T20:11:08.407Z,8.10
2018-07-24T20:13:37.740Z,7.97
2018-07-24T20:16:07.032Z,8.47
2018-07-24T20:18:36.808Z,8.93
2018-07-24T20:21:06.075Z,30.17
2018-07-24T20:23:35.322Z,41.47
2018-07-24T20:26:04.301Z,61.13
2018-07-24T20:28:33.527Z,61.97
2018-07-24T20:31:02.787Z,43.10
2018-07-24T20:33:32.010Z,35.13
2018-07-24T20:36:01.388Z,24.57
2018-07-24T20:38:30.655Z,17.73
2018-07-24T20:40:59.871Z,15.43
2018-07-24T20:43:28.925Z,16.97
2018-07-24T20:45:57.444Z,18.07
2018-07-24T20:48:26.107Z,16.13
2018-07-24T20:50:54.678Z,16.73
2018-07-24T20:53:23.843Z,14.70
2018-07-24T20:55:52.421Z,14.53
2018-07-24T20:58:21.473Z,13.70
2018-07-24T21:00:50.752Z,12.20
2018-07-24T21:03:19.978Z,11.60
2018-07-24T21:05:49.185Z,12.83
2018-07-24T21:08:18.188Z,11.70
2018-07-24T21:10:47.198Z,12.17
2018-07-24T21:13:16.464Z,10.90
2018-07-24T21:15:45.726Z,10.27
2018-07-24T21:18:14.951Z,10.23
2018-07-24T21:20:43.943Z,10.50
2018-07-24T21:23:12.507Z,9.70
2018-07-24T21:25:41.038Z,10.23
2018-07-24T21:28:09.600Z,10.07
2018-07-24T21:30:38.152Z,9.63
2018-07-24T21:33:07.357Z,8.20
2018-07-24T21:36:39.091Z,8.87
2018-07-24T21:39:08.876Z,8.00
2018-07-24T21:41:37.970Z,8.40
2018-07-24T21:44:07.150Z,9.40
2018-07-24T21:46:36.337Z,9.43
2018-07-24T21:49:05.600Z,9.20
2018-07-24T21:51:34.842Z,8.63
2018-07-24T21:54:03.409Z,8.63
2018-07-24T21:56:31.964Z,8.90
2018-07-24T21:59:00.492Z,8.40
2018-07-24T22:01:29.058Z,9.70
2018-07-24T22:03:57.639Z,8.67
2018-07-24T22:06:26.375Z,9.43
2018-07-24T22:08:55.113Z,7.70
2018-07-24T22:11:23.627Z,8.43
2018-07-24T22:13:52.167Z,8.70
2018-07-24T22:16:20.708Z,8.10
2018-07-24T22:18:49.223Z,8.43
2018-07-24T22:21:17.734Z,7.93
2018-07-24T22:23:46.248Z,8.07
2018-07-24T22:26:14.823Z,8.23
2018-07-24T22:28:43.381Z,8.20
2018-07-24T22:31:11.888Z,7.53
2018-07-24T22:33:40.412Z,7.97
2018-07-24T22:36:09.008Z,7.50
2018-07-24T22:38:37.544Z,7.30
2018-07-24T22:41:06.071Z,7.53
2018-07-24T22:43:34.603Z,7.50
2018-07-24T22:46:03.137Z,6.57
2018-07-24T22:48:31.656Z,7.80
2018-07-24T22:51:00.200Z,6.83
2018-07-24T22:53:28.720Z,7.07
2018-07-24T22:55:57.223Z,7.00
2018-07-24T22:58:25.963Z,7.30
2018-07-24T23:00:54.483Z,6.83
2018-07-24T23:03:23.011Z,6.27
2018-07-24T23:05:51.532Z,6.80
2018-07-24T23:08:20.061Z,6.57
2018-07-24T23:10:48.564Z,6.63
2018-07-24T23:13:17.065Z,6.70
2018-07-24T23:15:45.588Z,5.97
2018-07-24T23:18:14.102Z,6.10
2018-07-24T23:20:42.613Z,7.17
2018-07-24T23:23:11.128Z,6.10
2018-07-24T23:25:39.663Z,6.30
2018-07-24T23:28:08.190Z,6.70
2018-07-24T23:30:37.219Z,6.93
2018-07-24T23:33:05.778Z,7.00
2018-07-24T23:35:34.975Z,7.23
2018-07-24T23:38:05.199Z,8.20
2018-07-24T23:40:34.427Z,8.40
2018-07-24T23:43:03.420Z,8.80
2018-07-24T23:45:32.463Z,8.90
2018-07-24T23:48:01.313Z,8.93
2018-07-24T23:50:30.523Z,9.27
2018-07-24T23:52:59.760Z,8.70
2018-07-24T23:55:28.981Z,8.23
2018-07-24T23:57:58.012Z,8.47
